sensor_id;sensor_type;location;lat;lon;timestamp;pressure;altitude;pressure_sealevel;temperature;humidity
31337;BME280;22846;42.654;23.314;2023-07-31T00:01:26;94179.75;;;28.69;43.57
31337;BME280;22846;42.654;23.314;2023-07-31T00:03:51;94188.56;;;28.73;43.93
31337;BME280;22846;42.654;23.314;2023-07-31T00:06:16;94182.22;;;28.67;44.44
31337;BME280;22846;42.654;23.314;2023-07-31T00:08:42;94190.97;;;28.65;44.38
31337;BME280;22846;42.654;23.314;2023-07-31T00:11:07;94190.97;;;28.65;44.50
31337;BME280;22846;42.654;23.314;2023-07-31T00:13:32;94193.72;;;28.65;44.80
31337;BME280;22846;42.654;23.314;2023-07-31T00:15:59;94194.47;;;28.66;45.08
31337;BME280;22846;42.654;23.314;2023-07-31T00:18:24;94192.94;;;28.65;44.95
31337;BME280;22846;42.654;23.314;2023-07-31T00:20:50;94189.44;;;28.64;45.07
31337;BME280;22846;42.654;23.314;2023-07-31T00:23:15;94188.94;;;28.66;45.06
31337;BME280;22846;42.654;23.314;2023-07-31T00:25:41;94190.47;;;28.67;44.80
31337;BME280;22846;42.654;23.314;2023-07-31T00:28:07;94187.19;;;28.63;44.99
31337;BME280;22846;42.654;23.314;2023-07-31T00:30:32;94176.91;;;28.63;45.19
31337;BME280;22846;42.654;23.314;2023-07-31T00:32:58;94170.47;;;28.66;45.11
31337;BME280;22846;42.654;23.314;2023-07-31T00:35:23;94158.72;;;28.66;45.09
31337;BME280;22846;42.654;23.314;2023-07-31T00:37:48;94162.69;;;28.65;45.40
31337;BME280;22846;42.654;23.314;2023-07-31T00:40:14;94156.94;;;28.63;45.42
31337;BME280;22846;42.654;23.314;2023-07-31T00:42:39;94153.59;;;28.59;45.42
31337;BME280;22846;42.654;23.314;2023-07-31T00:45:05;94158.16;;;28.62;45.97
31337;BME280;22846;42.654;23.314;2023-07-31T00:47:30;94160.63;;;28.60;45.90
31337;BME280;22846;42.654;23.314;2023-07-31T00:49:56;94165.38;;;28.59;46.07
31337;BME280;22846;42.654;23.314;2023-07-31T00:52:22;94157.03;;;28.54;45.98
31337;BME280;22846;42.654;23.314;2023-07-31T00:54:49;94159.00;;;28.53;45.84
31337;BME280;22846;42.654;23.314;2023-07-31T00:57:15;94160.22;;;28.52;45.95
31337;BME280;22846;42.654;23.314;2023-07-31T00:59:41;94146.38;;;28.47;45.96
31337;BME280;22846;42.654;23.314;2023-07-31T01:02:06;94157.03;;;28.54;45.95
31337;BME280;22846;42.654;23.314;2023-07-31T01:04:32;94147.47;;;28.49;45.83
31337;BME280;22846;42.654;23.314;2023-07-31T01:09:37;94151.97;;;28.52;45.63
31337;BME280;22846;42.654;23.314;2023-07-31T01:12:07;94143.38;;;28.45;45.62
31337;BME280;22846;42.654;23.314;2023-07-31T01:14:34;94129.84;;;28.41;45.96
31337;BME280;22846;42.654;23.314;2023-07-31T01:17:00;94144.50;;;28.53;45.73
31337;BME280;22846;42.654;23.314;2023-07-31T01:19:26;94139.75;;;28.53;46.00
31337;BME280;22846;42.654;23.314;2023-07-31T01:24:48;94146.97;;;28.51;45.70
31337;BME280;22846;42.654;23.314;2023-07-31T01:27:21;94136.66;;;28.46;45.70
31337;BME280;22846;42.654;23.314;2023-07-31T01:30:11;94147.47;;;28.49;45.55
31337;BME280;22846;42.654;23.314;2023-07-31T01:32:43;94138.16;;;28.47;45.63
31337;BME280;22846;42.654;23.314;2023-07-31T01:35:09;94141.19;;;28.49;46.17
31337;BME280;22846;42.654;23.314;2023-07-31T01:37:35;94139.66;;;28.48;46.28
31337;BME280;22846;42.654;23.314;2023-07-31T01:40:00;94142.41;;;28.48;46.26
31337;BME280;22846;42.654;23.314;2023-07-31T01:42:26;94127.81;;;28.42;45.90
31337;BME280;22846;42.654;23.314;2023-07-31T01:44:51;94118.16;;;28.32;46.06
31337;BME280;22846;42.654;23.314;2023-07-31T01:47:16;94141.66;;;28.47;46.15
31337;BME280;22846;42.654;23.314;2023-07-31T01:49:42;94127.53;;;28.40;46.08
31337;BME280;22846;42.654;23.314;2023-07-31T01:52:07;94137.09;;;28.44;46.15
31337;BME280;22846;42.654;23.314;2023-07-31T01:54:32;94143.84;;;28.43;46.24
31337;BME280;22846;42.654;23.314;2023-07-31T01:56:58;94145.06;;;28.42;45.87
31337;BME280;22846;42.654;23.314;2023-07-31T01:59:24;94139.13;;;28.44;45.90
31337;BME280;22846;42.654;23.314;2023-07-31T02:01:49;94145.34;;;28.44;46.18
31337;BME280;22846;42.654;23.314;2023-07-31T02:04:15;94143.84;;;28.43;46.24
31337;BME280;22846;42.654;23.314;2023-07-31T02:06:40;94145.34;;;28.44;46.33
31337;BME280;22846;42.654;23.314;2023-07-31T02:09:05;94149.34;;;28.43;46.24
31337;BME280;22846;42.654;23.314;2023-07-31T02:11:31;94143.56;;;28.41;46.28
31337;BME280;22846;42.654;23.314;2023-07-31T02:13:56;94126.88;;;28.30;46.42
31337;BME280;22846;42.654;23.314;2023-07-31T02:16:22;94148.00;;;28.39;46.20
31337;BME280;22846;42.654;23.314;2023-07-31T02:18:47;94152.94;;;28.35;46.23
31337;BME280;22846;42.654;23.314;2023-07-31T02:21:12;94150.00;;;28.38;46.28
31337;BME280;22846;42.654;23.314;2023-07-31T02:23:38;94154.00;;;28.37;46.46
31337;BME280;22846;42.654;23.314;2023-07-31T02:26:03;94155.50;;;28.38;46.39
31337;BME280;22846;42.654;23.314;2023-07-31T02:28:29;94129.72;;;28.21;46.66
31337;BME280;22846;42.654;23.314;2023-07-31T02:30:54;94145.94;;;28.34;46.02
31337;BME280;22846;42.654;23.314;2023-07-31T02:33:20;94146.41;;;28.32;46.66
31337;BME280;22846;42.654;23.314;2023-07-31T02:35:45;94157.50;;;28.38;46.55
31337;BME280;22846;42.654;23.314;2023-07-31T02:38:11;94137.69;;;28.34;46.72
31337;BME280;22846;42.654;23.314;2023-07-31T02:40:36;94142.25;;;28.37;46.27
31337;BME280;22846;42.654;23.314;2023-07-31T02:43:02;94148.19;;;28.35;46.51
31337;BME280;22846;42.654;23.314;2023-07-31T02:45:27;94153.25;;;28.37;46.81
31337;BME280;22846;42.654;23.314;2023-07-31T02:47:52;94148.38;;;28.32;46.62
31337;BME280;22846;42.654;23.314;2023-07-31T02:50:18;94156.75;;;28.37;46.69
31337;BME280;22846;42.654;23.314;2023-07-31T02:52:43;94159.97;;;28.36;46.57
31337;BME280;22846;42.654;23.314;2023-07-31T02:55:09;94168.22;;;28.36;46.62
31337;BME280;22846;42.654;23.314;2023-07-31T02:57:34;94170.00;;;28.39;46.97
31337;BME280;22846;42.654;23.314;2023-07-31T02:59:59;94156.09;;;28.28;46.72
31337;BME280;22846;42.654;23.314;2023-07-31T03:02:25;94167.94;;;28.34;46.48
31337;BME280;22846;42.654;23.314;2023-07-31T03:04:50;94188.00;;;28.40;46.35
31337;BME280;22846;42.654;23.314;2023-07-31T03:07:16;94182.50;;;28.40;46.77
31337;BME280;22846;42.654;23.314;2023-07-31T03:09:41;94179.75;;;28.40;46.30
31337;BME280;22846;42.654;23.314;2023-07-31T03:12:07;94177.22;;;28.36;46.12
31337;BME280;22846;42.654;23.314;2023-07-31T03:14:33;94159.03;;;28.24;46.79
31337;BME280;22846;42.654;23.314;2023-07-31T03:16:59;94188.50;;;28.38;46.52
31337;BME280;22846;42.654;23.314;2023-07-31T03:19:24;94182.50;;;28.40;46.40
31337;BME280;22846;42.654;23.314;2023-07-31T03:21:49;94186.03;;;28.40;46.73
31337;BME280;22846;42.654;23.314;2023-07-31T03:24:15;94192.75;;;28.39;46.39
31337;BME280;22846;42.654;23.314;2023-07-31T03:26:40;94188.00;;;28.40;46.56
31337;BME280;22846;42.654;23.314;2023-07-31T03:29:09;94195.03;;;28.41;46.59
31337;BME280;22846;42.654;23.314;2023-07-31T03:31:35;94186.03;;;28.40;46.33
31337;BME280;22846;42.654;23.314;2023-07-31T03:34:00;94193.50;;;28.40;46.41
31337;BME280;22846;42.654;23.314;2023-07-31T03:36:25;94196.75;;;28.38;46.34
31337;BME280;22846;42.654;23.314;2023-07-31T03:38:54;94193.25;;;28.38;46.33
31337;BME280;22846;42.654;23.314;2023-07-31T03:41:19;94205.28;;;28.40;46.46
31337;BME280;22846;42.654;23.314;2023-07-31T03:43:47;94197.22;;;28.37;46.50
31337;BME280;22846;42.654;23.314;2023-07-31T03:46:13;94205.72;;;28.39;46.38
31337;BME280;22846;42.654;23.314;2023-07-31T03:48:38;94206.69;;;28.36;46.40
31337;BME280;22846;42.654;23.314;2023-07-31T03:51:04;94209.25;;;28.39;46.37
31337;BME280;22846;42.654;23.314;2023-07-31T03:53:29;94197.31;;;28.28;46.13
31337;BME280;22846;42.654;23.314;2023-07-31T03:55:54;94195.00;;;28.26;46.36
31337;BME280;22846;42.654;23.314;2023-07-31T03:58:20;94204.25;;;28.38;46.21
31337;BME280;22846;42.654;23.314;2023-07-31T04:00:45;94219.97;;;28.37;45.85
31337;BME280;22846;42.654;23.314;2023-07-31T04:03:10;94215.25;;;28.38;46.12
31337;BME280;22846;42.654;23.314;2023-07-31T04:05:38;94206.13;;;28.32;45.92
31337;BME280;22846;42.654;23.314;2023-07-31T04:08:03;94223.47;;;28.38;46.37
31337;BME280;22846;42.654;23.314;2023-07-31T04:10:29;94203.25;;;28.26;45.81
31337;BME280;22846;42.654;23.314;2023-07-31T04:12:55;94187.00;;;28.14;46.31
31337;BME280;22846;42.654;23.314;2023-07-31T04:15:20;94222.41;;;28.35;46.08
31337;BME280;22846;42.654;23.314;2023-07-31T04:17:45;94220.63;;;28.32;46.40
31337;BME280;22846;42.654;23.314;2023-07-31T04:20:11;94209.03;;;28.28;46.22
31337;BME280;22846;42.654;23.314;2023-07-31T04:22:36;94226.22;;;28.38;46.25
31337;BME280;22846;42.654;23.314;2023-07-31T04:25:02;94230.94;;;28.37;45.72
31337;BME280;22846;42.654;23.314;2023-07-31T04:27:27;94221.66;;;28.35;45.75
31337;BME280;22846;42.654;23.314;2023-07-31T04:29:52;94215.41;;;28.34;46.16
31337;BME280;22846;42.654;23.314;2023-07-31T04:32:18;94231.25;;;28.39;46.41
31337;BME280;22846;42.654;23.314;2023-07-31T04:34:44;94223.00;;;28.39;45.71
31337;BME280;22846;42.654;23.314;2023-07-31T04:37:10;94218.63;;;28.33;45.76
31337;BME280;22846;42.654;23.314;2023-07-31T04:39:35;94233.50;;;28.41;45.96
31337;BME280;22846;42.654;23.314;2023-07-31T04:42:00;94229.25;;;28.40;45.97
31337;BME280;22846;42.654;23.314;2023-07-31T04:44:26;94221.66;;;28.35;45.94
31337;BME280;22846;42.654;23.314;2023-07-31T04:46:51;94226.78;;;28.42;46.03
31337;BME280;22846;42.654;23.314;2023-07-31T04:49:17;94211.59;;;28.32;45.61
31337;BME280;22846;42.654;23.314;2023-07-31T04:51:42;94224.53;;;28.40;45.90
31337;BME280;22846;42.654;23.314;2023-07-31T04:54:07;94217.69;;;28.36;45.61
31337;BME280;22846;42.654;23.314;2023-07-31T04:56:33;94228.31;;;28.43;45.43
31337;BME280;22846;42.654;23.314;2023-07-31T04:58:58;94228.31;;;28.43;44.99
31337;BME280;22846;42.654;23.314;2023-07-31T05:01:23;94223.38;;;28.47;45.12
31337;BME280;22846;42.654;23.314;2023-07-31T05:03:49;94223.38;;;28.47;44.98
31337;BME280;22846;42.654;23.314;2023-07-31T05:06:14;94211.03;;;28.42;44.81
31337;BME280;22846;42.654;23.314;2023-07-31T05:08:40;94218.94;;;28.49;45.16
31337;BME280;22846;42.654;23.314;2023-07-31T05:11:06;94226.91;;;28.47;45.63
31337;BME280;22846;42.654;23.314;2023-07-31T05:13:31;94217.03;;;28.41;46.02
31337;BME280;22846;42.654;23.314;2023-07-31T05:15:56;94223.38;;;28.47;46.17
31337;BME280;22846;42.654;23.314;2023-07-31T05:18:22;94219.97;;;28.52;46.00
31337;BME280;22846;42.654;23.314;2023-07-31T05:20:47;94204.72;;;28.51;45.85
31337;BME280;22846;42.654;23.314;2023-07-31T05:23:12;94218.66;;;28.62;45.83
31337;BME280;22846;42.654;23.314;2023-07-31T05:25:38;94219.69;;;28.64;45.42
31337;BME280;22846;42.654;23.314;2023-07-31T05:28:03;94206.78;;;28.56;45.22
31337;BME280;22846;42.654;23.314;2023-07-31T05:30:32;94212.66;;;28.63;45.34
31337;BME280;22846;42.654;23.314;2023-07-31T05:32:57;94218.28;;;28.69;45.13
31337;BME280;22846;42.654;23.314;2023-07-31T05:35:23;94222.53;;;28.70;45.28
31337;BME280;22846;42.654;23.314;2023-07-31T05:37:48;94208.41;;;28.62;45.50
31337;BME280;22846;42.654;23.314;2023-07-31T05:40:14;94219.59;;;28.73;45.47
31337;BME280;22846;42.654;23.314;2023-07-31T05:42:39;94216.34;;;28.75;45.27
31337;BME280;22846;42.654;23.314;2023-07-31T05:45:06;94217.41;;;28.77;44.91
31337;BME280;22846;42.654;23.314;2023-07-31T05:47:31;94203.28;;;28.70;44.67
31337;BME280;22846;42.654;23.314;2023-07-31T05:49:57;94221.97;;;28.80;44.78
31337;BME280;22846;42.654;23.314;2023-07-31T05:52:22;94213.00;;;28.80;44.94
31337;BME280;22846;42.654;23.314;2023-07-31T05:54:47;94219.25;;;28.80;44.92
31337;BME280;22846;42.654;23.314;2023-07-31T05:57:13;94216.00;;;28.82;44.80
31337;BME280;22846;42.654;23.314;2023-07-31T05:59:38;94219.63;;;28.88;44.99
31337;BME280;22846;42.654;23.314;2023-07-31T06:02:04;94220.16;;;28.92;44.73
31337;BME280;22846;42.654;23.314;2023-07-31T06:04:29;94222.91;;;28.92;44.94
31337;BME280;22846;42.654;23.314;2023-07-31T06:06:55;94229.28;;;28.98;44.75
31337;BME280;22846;42.654;23.314;2023-07-31T06:09:21;94227.28;;;28.98;44.52
31337;BME280;22846;42.654;23.314;2023-07-31T06:11:46;94224.63;;;29.03;44.48
31337;BME280;22846;42.654;23.314;2023-07-31T06:14:11;94221.59;;;29.02;44.28
31337;BME280;22846;42.654;23.314;2023-07-31T06:16:37;94225.47;;;29.09;44.35
31337;BME280;22846;42.654;23.314;2023-07-31T06:19:02;94228.50;;;29.11;44.23
31337;BME280;22846;42.654;23.314;2023-07-31T06:21:28;94233.06;;;29.14;44.36
31337;BME280;22846;42.654;23.314;2023-07-31T06:23:54;94235.31;;;29.16;44.15
31337;BME280;22846;42.654;23.314;2023-07-31T06:26:20;94230.09;;;29.18;44.26
31337;BME280;22846;42.654;23.314;2023-07-31T06:28:45;94227.34;;;29.18;44.36
31337;BME280;22846;42.654;23.314;2023-07-31T06:31:11;94225.06;;;29.16;43.99
31337;BME280;22846;42.654;23.314;2023-07-31T06:33:37;94230.94;;;29.24;44.38
31337;BME280;22846;42.654;23.314;2023-07-31T06:36:02;94218.91;;;29.21;44.35
31337;BME280;22846;42.654;23.314;2023-07-31T06:38:27;94223.91;;;29.23;44.69
31337;BME280;22846;42.654;23.314;2023-07-31T06:40:53;94218.63;;;29.19;44.27
31337;BME280;22846;42.654;23.314;2023-07-31T06:43:19;94233.97;;;29.26;42.81
31337;BME280;22846;42.654;23.314;2023-07-31T06:45:44;94232.47;;;29.25;43.00
31337;BME280;22846;42.654;23.314;2023-07-31T06:48:11;94233.41;;;29.22;43.18
31337;BME280;22846;42.654;23.314;2023-07-31T06:50:36;94222.06;;;29.14;43.10
31337;BME280;22846;42.654;23.314;2023-07-31T06:53:02;94240.81;;;29.16;42.98
31337;BME280;22846;42.654;23.314;2023-07-31T06:55:27;94227.19;;;29.07;42.03
31337;BME280;22846;42.654;23.314;2023-07-31T06:57:54;94238.09;;;29.02;41.58
31337;BME280;22846;42.654;23.314;2023-07-31T07:00:22;94245.31;;;28.99;41.47
31337;BME280;22846;42.654;23.314;2023-07-31T07:02:48;94240.66;;;28.91;41.37
31337;BME280;22846;42.654;23.314;2023-07-31T07:05:14;94233.28;;;28.82;41.19
31337;BME280;22846;42.654;23.314;2023-07-31T07:07:40;94223.19;;;28.65;40.74
31337;BME280;22846;42.654;23.314;2023-07-31T07:10:06;94216.94;;;28.64;41.59
31337;BME280;22846;42.654;23.314;2023-07-31T07:12:36;94229.25;;;28.54;41.31
31337;BME280;22846;42.654;23.314;2023-07-31T07:15:02;94221.00;;;28.40;41.35
31337;BME280;22846;42.654;23.314;2023-07-31T07:17:29;94233.81;;;28.43;41.91
31337;BME280;22846;42.654;23.314;2023-07-31T07:19:58;94233.81;;;28.43;41.38
31337;BME280;22846;42.654;23.314;2023-07-31T07:22:25;94236.75;;;28.39;41.28
31337;BME280;22846;42.654;23.314;2023-07-31T07:24:52;94232.38;;;28.33;41.28
31337;BME280;22846;42.654;23.314;2023-07-31T07:27:17;94227.53;;;28.28;41.37
31337;BME280;22846;42.654;23.314;2023-07-31T07:29:42;94227.09;;;28.20;40.97
31337;BME280;22846;42.654;23.314;2023-07-31T07:32:08;94225.22;;;28.12;41.30
31337;BME280;22846;42.654;23.314;2023-07-31T07:34:33;94221.72;;;27.88;41.72
31337;BME280;22846;42.654;23.314;2023-07-31T07:37:00;94225.44;;;27.62;41.91
31337;BME280;22846;42.654;23.314;2023-07-31T07:39:25;94221.50;;;27.54;42.78
31337;BME280;22846;42.654;23.314;2023-07-31T07:41:51;94220.44;;;27.51;42.46
31337;BME280;22846;42.654;23.314;2023-07-31T07:44:18;94236.56;;;27.58;42.44
31337;BME280;22846;42.654;23.314;2023-07-31T07:46:43;94242.06;;;27.58;42.72
31337;BME280;22846;42.654;23.314;2023-07-31T07:49:09;94242.28;;;27.69;42.19
31337;BME280;22846;42.654;23.314;2023-07-31T07:51:34;94227.44;;;27.52;42.10
31337;BME280;22846;42.654;23.314;2023-07-31T07:54:00;94240.22;;;27.64;42.02
31337;BME280;22846;42.654;23.314;2023-07-31T07:56:26;94244.16;;;27.63;42.05
31337;BME280;22846;42.654;23.314;2023-07-31T07:58:51;94235.94;;;27.63;41.86
31337;BME280;22846;42.654;23.314;2023-07-31T08:01:17;94253.00;;;27.67;42.04
31337;BME280;22846;42.654;23.314;2023-07-31T08:03:42;94245.06;;;27.60;42.19
31337;BME280;22846;42.654;23.314;2023-07-31T08:06:08;94256.00;;;27.46;42.32
31337;BME280;22846;42.654;23.314;2023-07-31T08:08:35;94254.81;;;27.38;42.09
31337;BME280;22846;42.654;23.314;2023-07-31T08:11:00;94244.72;;;27.12;41.98
31337;BME280;22846;42.654;23.314;2023-07-31T08:13:26;94251.09;;;27.18;42.44
31337;BME280;22846;42.654;23.314;2023-07-31T08:15:51;94253.56;;;27.16;41.84
31337;BME280;22846;42.654;23.314;2023-07-31T08:18:17;94254.31;;;27.16;41.73
31337;BME280;22846;42.654;23.314;2023-07-31T08:20:42;94253.84;;;27.18;41.99
31337;BME280;22846;42.654;23.314;2023-07-31T08:23:08;94243.91;;;27.29;41.50
31337;BME280;22846;42.654;23.314;2023-07-31T08:25:35;94249.06;;;27.27;41.54
31337;BME280;22846;42.654;23.314;2023-07-31T08:28:01;94238.59;;;27.26;41.38
31337;BME280;22846;42.654;23.314;2023-07-31T08:30:26;94232.00;;;27.23;41.74
31337;BME280;22846;42.654;23.314;2023-07-31T08:32:52;94247.03;;;27.36;41.51
31337;BME280;22846;42.654;23.314;2023-07-31T08:35:17;94246.41;;;27.41;41.34
31337;BME280;22846;42.654;23.314;2023-07-31T08:37:43;94247.94;;;27.42;41.27
31337;BME280;22846;42.654;23.314;2023-07-31T08:40:08;94233.63;;;27.38;40.93
31337;BME280;22846;42.654;23.314;2023-07-31T08:42:43;94242.66;;;27.30;40.91
31337;BME280;22846;42.654;23.314;2023-07-31T08:45:09;94248.25;;;27.35;40.90
31337;BME280;22846;42.654;23.314;2023-07-31T08:47:34;94253.00;;;27.35;40.92
31337;BME280;22846;42.654;23.314;2023-07-31T08:50:01;94236.09;;;27.28;40.77
31337;BME280;22846;42.654;23.314;2023-07-31T08:52:27;94245.19;;;27.42;41.19
31337;BME280;22846;42.654;23.314;2023-07-31T08:54:52;94242.28;;;27.46;40.79
31337;BME280;22846;42.654;23.314;2023-07-31T08:57:17;94239.53;;;27.46;40.96
31337;BME280;22846;42.654;23.314;2023-07-31T08:59:43;94249.84;;;27.51;40.09
31337;BME280;22846;42.654;23.314;2023-07-31T09:02:09;94250.84;;;27.39;40.34
31337;BME280;22846;42.654;23.314;2023-07-31T09:04:35;94261.59;;;27.28;40.09
31337;BME280;22846;42.654;23.314;2023-07-31T09:07:02;94250.34;;;27.17;40.38
31337;BME280;22846;42.654;23.314;2023-07-31T09:09:30;94250.16;;;27.21;40.78
31337;BME280;22846;42.654;23.314;2023-07-31T09:11:57;94238.44;;;27.20;40.68
31337;BME280;22846;42.654;23.314;2023-07-31T09:14:25;94241.56;;;27.36;40.44
31337;BME280;22846;42.654;23.314;2023-07-31T09:16:58;94246.38;;;27.50;40.25
31337;BME280;22846;42.654;23.314;2023-07-31T09:19:33;94232.91;;;27.52;39.73
31337;BME280;22846;42.654;23.314;2023-07-31T09:22:00;94229.97;;;27.65;39.83
31337;BME280;22846;42.654;23.314;2023-07-31T09:24:30;94235.13;;;27.72;40.05
31337;BME280;22846;42.654;23.314;2023-07-31T09:26:57;94223.38;;;27.71;39.18
31337;BME280;22846;42.654;23.314;2023-07-31T09:29:24;94219.41;;;27.72;39.62
31337;BME280;22846;42.654;23.314;2023-07-31T09:31:52;94209.00;;;27.76;39.86
31337;BME280;22846;42.654;23.314;2023-07-31T09:34:18;94218.28;;;27.79;39.45
31337;BME280;22846;42.654;23.314;2023-07-31T09:36:48;94211.56;;;27.80;39.76
31337;BME280;22846;42.654;23.314;2023-07-31T09:39:15;94203.16;;;27.83;39.36
31337;BME280;22846;42.654;23.314;2023-07-31T09:41:46;94206.38;;;27.82;39.52
31337;BME280;22846;42.654;23.314;2023-07-31T09:44:12;94213.19;;;27.86;39.86
31337;BME280;22846;42.654;23.314;2023-07-31T09:46:37;94201.34;;;27.80;39.29
31337;BME280;22846;42.654;23.314;2023-07-31T09:49:07;94197.38;;;27.81;39.45
31337;BME280;22846;42.654;23.314;2023-07-31T09:51:35;94204.50;;;27.88;39.68
31337;BME280;22846;42.654;23.314;2023-07-31T09:54:10;94203.84;;;27.93;39.59
31337;BME280;22846;42.654;23.314;2023-07-31T09:56:41;94215.47;;;27.88;39.28
31337;BME280;22846;42.654;23.314;2023-07-31T09:59:11;94212.38;;;27.95;38.81
31337;BME280;22846;42.654;23.314;2023-07-31T10:01:37;94194.06;;;27.92;39.37
31337;BME280;22846;42.654;23.314;2023-07-31T10:04:04;94187.66;;;27.95;38.66
31337;BME280;22846;42.654;23.314;2023-07-31T10:06:30;94183.50;;;27.99;39.38
31337;BME280;22846;42.654;23.314;2023-07-31T10:08:57;94197.81;;;28.03;39.25
31337;BME280;22846;42.654;23.314;2023-07-31T10:11:24;94197.16;;;28.08;39.01
31337;BME280;22846;42.654;23.314;2023-07-31T10:13:51;94203.03;;;28.16;38.81
31337;BME280;22846;42.654;23.314;2023-07-31T10:16:17;94199.53;;;28.15;38.60
31337;BME280;22846;42.654;23.314;2023-07-31T10:18:43;94200.84;;;28.19;38.64
31337;BME280;22846;42.654;23.314;2023-07-31T10:21:10;94189.81;;;28.28;38.77
31337;BME280;22846;42.654;23.314;2023-07-31T10:23:36;94196.34;;;28.31;38.35
31337;BME280;22846;42.654;23.314;2023-07-31T10:26:02;94183.75;;;28.39;37.75
31337;BME280;22846;42.654;23.314;2023-07-31T10:28:29;94188.59;;;28.44;37.84
31337;BME280;22846;42.654;23.314;2023-07-31T10:30:55;94191.44;;;28.49;37.90
31337;BME280;22846;42.654;23.314;2023-07-31T10:33:21;94183.94;;;28.50;37.20
31337;BME280;22846;42.654;23.314;2023-07-31T10:35:47;94189.34;;;28.44;37.35
31337;BME280;22846;42.654;23.314;2023-07-31T10:38:13;94186.03;;;28.40;36.86
31337;BME280;22846;42.654;23.314;2023-07-31T10:40:39;94186.41;;;28.48;37.62
31337;BME280;22846;42.654;23.314;2023-07-31T10:43:05;94184.31;;;28.43;36.63
31337;BME280;22846;42.654;23.314;2023-07-31T10:45:38;94177.28;;;28.27;36.94
31337;BME280;22846;42.654;23.314;2023-07-31T10:48:12;94182.72;;;28.36;37.29
31337;BME280;22846;42.654;23.314;2023-07-31T10:50:45;94181.88;;;28.45;38.01
31337;BME280;22846;42.654;23.314;2023-07-31T10:53:23;94176.19;;;28.48;38.17
31337;BME280;22846;42.654;23.314;2023-07-31T10:55:49;94174.38;;;28.60;37.86
31337;BME280;22846;42.654;23.314;2023-07-31T10:58:18;94169.81;;;28.71;37.89
31337;BME280;22846;42.654;23.314;2023-07-31T11:00:44;94165.00;;;28.81;38.20
31337;BME280;22846;42.654;23.314;2023-07-31T11:03:13;94163.06;;;28.87;38.16
31337;BME280;22846;42.654;23.314;2023-07-31T11:08:31;94142.31;;;28.86;38.08
31337;BME280;22846;42.654;23.314;2023-07-31T11:13:32;94156.88;;;29.06;38.10
31337;BME280;22846;42.654;23.314;2023-07-31T11:15:59;94154.19;;;29.11;38.28
31337;BME280;22846;42.654;23.314;2023-07-31T11:18:26;94147.16;;;29.10;37.91
31337;BME280;22846;42.654;23.314;2023-07-31T11:20:52;94160.53;;;29.17;38.06
31337;BME280;22846;42.654;23.314;2023-07-31T11:23:19;94161.09;;;29.21;38.15
31337;BME280;22846;42.654;23.314;2023-07-31T11:25:44;94153.88;;;29.24;38.25
31337;BME280;22846;42.654;23.314;2023-07-31T11:28:12;94145.91;;;29.26;38.37
31337;BME280;22846;42.654;23.314;2023-07-31T11:30:38;94148.66;;;29.26;38.59
31337;BME280;22846;42.654;23.314;2023-07-31T11:33:05;94153.47;;;29.31;38.43
31337;BME280;22846;42.654;23.314;2023-07-31T11:35:35;94150.25;;;29.32;38.47
31337;BME280;22846;42.654;23.314;2023-07-31T11:38:01;94156.00;;;29.34;38.30
31337;BME280;22846;42.654;23.314;2023-07-31T11:40:27;94152.00;;;29.35;38.46
31337;BME280;22846;42.654;23.314;2023-07-31T11:42:58;94150.81;;;29.36;38.53
31337;BME280;22846;42.654;23.314;2023-07-31T11:45:25;94152.34;;;29.37;38.71
31337;BME280;22846;42.654;23.314;2023-07-31T11:47:54;94143.75;;;29.35;38.53
31337;BME280;22846;42.654;23.314;2023-07-31T11:50:19;94143.88;;;29.41;38.58
31337;BME280;22846;42.654;23.314;2023-07-31T11:52:46;94148.13;;;29.42;38.76
31337;BME280;22846;42.654;23.314;2023-07-31T11:55:13;94141.88;;;29.41;38.68
31337;BME280;22846;42.654;23.314;2023-07-31T11:57:41;94134.66;;;29.44;38.84
31337;BME280;22846;42.654;23.314;2023-07-31T12:00:09;94143.66;;;29.44;39.25
31337;BME280;22846;42.654;23.314;2023-07-31T12:02:36;94139.38;;;29.43;39.14
31337;BME280;22846;42.654;23.314;2023-07-31T12:05:02;94150.47;;;29.49;39.34
31337;BME280;22846;42.654;23.314;2023-07-31T12:07:45;94135.69;;;29.46;38.94
31337;BME280;22846;42.654;23.314;2023-07-31T12:10:11;94134.97;;;29.51;39.28
31337;BME280;22846;42.654;23.314;2023-07-31T12:12:36;94124.75;;;29.52;39.00
31337;BME280;22846;42.654;23.314;2023-07-31T12:15:02;94127.94;;;29.50;39.35
31337;BME280;22846;42.654;23.314;2023-07-31T12:17:27;94123.00;;;29.54;38.93
31337;BME280;22846;42.654;23.314;2023-07-31T12:19:53;94124.53;;;29.55;39.12
31337;BME280;22846;42.654;23.314;2023-07-31T12:22:20;94129.25;;;29.55;39.33
31337;BME280;22846;42.654;23.314;2023-07-31T12:24:46;94117.78;;;29.56;39.14
31337;BME280;22846;42.654;23.314;2023-07-31T12:27:15;94125.06;;;29.59;39.05
31337;BME280;22846;42.654;23.314;2023-07-31T12:29:42;94108.50;;;29.54;39.44
31337;BME280;22846;42.654;23.314;2023-07-31T12:34:45;94121.06;;;29.60;39.41
31337;BME280;22846;42.654;23.314;2023-07-31T12:37:10;94116.78;;;29.59;39.47
31337;BME280;22846;42.654;23.314;2023-07-31T12:39:36;94120.59;;;29.62;39.35
31337;BME280;22846;42.654;23.314;2023-07-31T12:42:01;94116.34;;;29.61;39.41
31337;BME280;22846;42.654;23.314;2023-07-31T12:44:27;94109.59;;;29.62;39.84
31337;BME280;22846;42.654;23.314;2023-07-31T12:46:52;94115.97;;;29.53;39.12
31337;BME280;22846;42.654;23.314;2023-07-31T12:49:18;94100.31;;;29.39;37.30
31337;BME280;22846;42.654;23.314;2023-07-31T12:51:43;94110.28;;;29.37;36.33
31337;BME280;22846;42.654;23.314;2023-07-31T12:54:09;94107.56;;;29.22;35.67
31337;BME280;22846;42.654;23.314;2023-07-31T12:56:34;94108.66;;;29.10;35.56
31337;BME280;22846;42.654;23.314;2023-07-31T12:58:59;94101.94;;;28.97;35.22